createdAt,value
2018-03-16T00:01:02.820Z,93881.70
2018-03-16T00:03:43.278Z,93882.59
2018-03-16T00:06:12.358Z,93881.59
2018-03-16T00:08:41.401Z,93889.41
2018-03-16T00:11:10.446Z,93891.00
2018-03-16T00:13:48.781Z,93904.59
2018-03-16T00:16:22.874Z,93904.75
2018-03-16T00:18:51.925Z,93912.70
2018-03-16T00:23:56.160Z,93923.44
2018-03-16T00:29:00.383Z,93929.44
2018-03-16T00:31:33.429Z,93929.78
2018-03-16T00:36:38.227Z,93944.42
2018-03-16T00:39:07.281Z,93944.23
2018-03-16T00:41:40.379Z,93938.19
2018-03-16T00:44:09.431Z,93940.47
2018-03-16T00:46:47.591Z,93950.84
2018-03-16T00:49:21.410Z,93953.64
2018-03-16T00:51:54.284Z,93956.73
2018-03-16T00:54:23.339Z,93951.80
2018-03-16T00:56:54.371Z,93950.95
2018-03-16T00:59:35.095Z,93945.56
2018-03-16T01:02:04.144Z,93950.88
2018-03-16T01:04:33.199Z,93953.73
2018-03-16T01:07:02.238Z,93955.64
2018-03-16T01:09:32.363Z,93955.97
2018-03-16T01:12:01.402Z,93960.83
2018-03-16T01:14:31.583Z,93958.75
2018-03-16T01:17:00.648Z,93962.91
2018-03-16T01:19:29.790Z,93961.36
2018-03-16T01:21:58.913Z,93960.83
2018-03-16T01:24:32.012Z,93963.53
2018-03-16T01:27:01.034Z,93967.16
2018-03-16T01:29:30.086Z,93958.30
2018-03-16T01:31:59.319Z,93959.58
2018-03-16T01:34:28.537Z,93949.13
2018-03-16T01:36:57.785Z,93946.12
2018-03-16T01:39:26.851Z,93952.38
2018-03-16T01:41:55.894Z,93953.19
2018-03-16T01:44:25.138Z,93959.39
2018-03-16T01:46:59.862Z,93958.15
2018-03-16T01:49:44.002Z,93952.50
2018-03-16T01:52:23.819Z,93953.79
2018-03-16T01:54:53.529Z,93954.60
2018-03-16T01:57:22.567Z,93949.98
2018-03-16T01:59:52.598Z,93943.96
2018-03-16T02:02:21.641Z,93942.88
2018-03-16T02:04:50.791Z,93944.72
2018-03-16T02:07:21.092Z,93942.37
2018-03-16T02:10:09.011Z,93945.91
2018-03-16T02:15:17.315Z,93945.86
2018-03-16T02:17:46.419Z,93945.21
2018-03-16T02:20:17.368Z,93937.02
2018-03-16T02:22:46.410Z,93942.59
2018-03-16T02:25:17.351Z,93946.00
2018-03-16T02:27:50.428Z,93947.42
2018-03-16T02:30:19.455Z,93950.89
2018-03-16T02:32:58.548Z,93954.36
2018-03-16T02:35:27.563Z,93952.44
2018-03-16T02:37:58.498Z,93955.50
2018-03-16T02:40:27.544Z,93961.08
2018-03-16T02:45:31.763Z,93972.41
2018-03-16T02:48:09.862Z,93973.10
2018-03-16T02:50:39.849Z,93970.79
2018-03-16T02:55:44.126Z,93969.75
2018-03-16T02:58:17.290Z,93974.02
2018-03-16T03:00:46.331Z,93964.09
2018-03-16T03:03:15.366Z,93962.15
2018-03-16T03:05:44.421Z,93962.09
2018-03-16T03:08:13.493Z,93966.81
2018-03-16T03:10:42.514Z,93966.16
2018-03-16T03:13:11.545Z,93959.94
2018-03-16T03:15:40.579Z,93961.62
2018-03-16T03:18:09.633Z,93961.18
2018-03-16T03:20:39.607Z,93959.53
2018-03-16T03:23:16.788Z,93960.60
2018-03-16T03:25:45.839Z,93964.63
2018-03-16T03:28:20.575Z,93959.91
2018-03-16T03:30:49.652Z,93964.89
2018-03-16T03:33:25.915Z,93964.87
2018-03-16T03:35:54.973Z,93966.33
2018-03-16T03:38:39.169Z,93968.81
2018-03-16T03:41:08.235Z,93970.41
2018-03-16T03:43:37.266Z,93972.09
2018-03-16T03:46:06.310Z,93966.59
2018-03-16T03:48:40.483Z,93965.62
2018-03-16T03:51:09.528Z,93961.94
2018-03-16T03:53:40.668Z,93959.72
2018-03-16T03:56:10.033Z,93959.15
2018-03-16T03:58:40.020Z,93964.14
2018-03-16T04:01:10.187Z,93962.29
2018-03-16T04:03:39.251Z,93964.77
2018-03-16T04:06:09.498Z,93964.93
2018-03-16T04:08:38.546Z,93968.09
2018-03-16T04:11:07.610Z,93969.39
2018-03-16T04:13:36.651Z,93968.50
2018-03-16T04:16:05.887Z,93969.36
2018-03-16T04:21:10.213Z,93976.41
2018-03-16T04:23:57.883Z,93974.48
2018-03-16T04:26:26.918Z,93974.43
2018-03-16T04:28:57.921Z,93972.65
2018-03-16T04:31:26.981Z,93974.55
2018-03-16T04:34:01.731Z,93974.02
2018-03-16T04:36:32.070Z,93973.28
2018-03-16T04:39:01.114Z,93978.09
2018-03-16T04:41:42.178Z,93984.75
2018-03-16T04:44:11.216Z,93977.70
2018-03-16T04:46:49.858Z,93981.30
2018-03-16T04:49:18.890Z,93988.34
2018-03-16T04:51:49.855Z,93985.86
2018-03-16T04:54:18.904Z,93983.03
2018-03-16T04:57:01.264Z,93991.84
2018-03-16T04:59:57.289Z,93985.58
2018-03-16T05:02:26.340Z,93981.64
2018-03-16T05:05:03.267Z,93982.80
2018-03-16T05:10:07.493Z,93987.14
2018-03-16T05:12:40.368Z,93984.11
2018-03-16T05:15:09.420Z,93986.25
2018-03-16T05:17:52.299Z,93995.09
2018-03-16T05:20:21.314Z,93989.24
2018-03-16T05:23:11.206Z,93993.25
2018-03-16T05:25:40.450Z,93999.11
2018-03-16T05:28:13.280Z,93997.12
2018-03-16T05:30:42.319Z,93998.05
2018-03-16T05:33:16.022Z,94002.39
2018-03-16T05:35:54.659Z,94005.98
2018-03-16T05:38:24.611Z,94003.28
2018-03-16T05:40:57.814Z,94004.88
2018-03-16T05:43:26.955Z,94009.77
2018-03-16T05:45:57.201Z,94008.31
2018-03-16T05:48:26.247Z,94015.73
2018-03-16T05:50:55.284Z,94014.08
2018-03-16T05:53:25.348Z,94011.38
2018-03-16T05:55:55.603Z,94016.77
2018-03-16T05:58:24.639Z,94013.52
2018-03-16T06:03:28.889Z,94020.44
2018-03-16T06:06:01.759Z,94025.52
2018-03-16T06:08:30.802Z,94027.02
2018-03-16T06:11:05.377Z,94026.48
2018-03-16T06:13:34.410Z,94028.16
2018-03-16T06:16:25.265Z,94033.69
2018-03-16T06:19:03.289Z,94036.12
2018-03-16T06:21:32.322Z,94040.86
2018-03-16T06:24:14.622Z,94041.98
2018-03-16T06:26:44.088Z,94040.42
2018-03-16T06:29:13.167Z,94040.30
2018-03-16T06:31:42.270Z,94044.66
2018-03-16T06:34:13.487Z,94048.95
2018-03-16T06:36:42.523Z,94048.79
2018-03-16T06:39:11.588Z,94046.89
2018-03-16T06:41:40.779Z,94056.53
2018-03-16T06:44:11.715Z,94057.12
2018-03-16T06:46:40.754Z,94059.17
2018-03-16T06:49:09.874Z,94065.42
2018-03-16T06:51:48.445Z,94066.39
2018-03-16T06:54:17.498Z,94064.72
2018-03-16T06:56:50.096Z,94072.73
2018-03-16T06:59:20.664Z,94066.22
2018-03-16T07:01:51.183Z,94066.14
2018-03-16T07:04:24.026Z,94076.39
2018-03-16T07:06:55.803Z,94074.41
2018-03-16T07:12:01.006Z,94084.31
2018-03-16T07:14:38.031Z,94088.64
2018-03-16T07:17:07.048Z,94090.14
2018-03-16T07:22:12.358Z,94092.05
2018-03-16T07:24:41.401Z,94098.34
2018-03-16T07:27:13.749Z,94098.45
2018-03-16T07:29:51.501Z,94098.70
2018-03-16T07:32:21.431Z,94105.06
2018-03-16T07:34:54.678Z,94101.87
2018-03-16T07:37:24.444Z,94100.09
2018-03-16T07:39:58.007Z,94102.56
2018-03-16T07:42:38.570Z,94111.92
2018-03-16T07:45:07.854Z,94107.64
2018-03-16T07:47:47.071Z,94115.47
2018-03-16T07:50:18.518Z,94113.17
2018-03-16T07:55:34.408Z,94104.41
2018-03-16T07:58:03.427Z,94099.56
2018-03-16T08:00:34.335Z,94101.66
2018-03-16T08:08:20.208Z,94103.60
2018-03-16T08:10:58.292Z,94101.91
2018-03-16T08:13:27.906Z,94093.09
2018-03-16T08:15:57.928Z,94096.44
2018-03-16T08:18:29.689Z,94095.64
2018-03-16T08:20:59.346Z,94096.15
2018-03-16T08:23:35.642Z,94097.88
2018-03-16T08:26:04.855Z,94103.30
2018-03-16T08:28:39.800Z,94104.53
2018-03-16T08:31:13.243Z,94099.86
2018-03-16T08:36:20.241Z,94092.24
2018-03-16T08:41:27.591Z,94092.08
2018-03-16T08:44:00.609Z,94087.48
2018-03-16T08:46:31.731Z,94089.47
2018-03-16T08:49:03.326Z,94096.70
2018-03-16T08:51:36.084Z,94095.81
2018-03-16T08:54:07.669Z,94095.08
2018-03-16T08:56:43.685Z,94096.46
2018-03-16T08:59:15.128Z,94098.19
2018-03-16T09:01:48.432Z,94098.92
2018-03-16T09:04:21.685Z,94103.05
2018-03-16T09:06:53.531Z,94107.06
2018-03-16T09:09:25.135Z,94102.37
2018-03-16T09:14:30.198Z,94105.48
2018-03-16T09:17:01.872Z,94099.95
2018-03-16T09:19:30.908Z,94102.52
2018-03-16T09:22:04.791Z,94103.63
2018-03-16T09:24:33.820Z,94099.22
2018-03-16T09:29:42.359Z,94095.38
2018-03-16T09:32:11.423Z,94095.80
2018-03-16T09:34:40.444Z,94092.38
2018-03-16T09:39:44.939Z,94092.22
2018-03-16T09:42:14.000Z,94086.80
2018-03-16T09:44:46.349Z,94088.13
2018-03-16T09:47:20.738Z,94092.48
2018-03-16T09:49:50.863Z,94092.38
2018-03-16T09:52:30.002Z,94089.45
2018-03-16T09:58:09.156Z,94082.19
2018-03-16T10:00:40.274Z,94079.63
2018-03-16T10:03:14.194Z,94086.23
2018-03-16T10:05:43.457Z,94096.20
2018-03-16T10:08:12.501Z,94086.70
2018-03-16T10:10:41.683Z,94089.06
2018-03-16T10:13:10.730Z,94090.48
2018-03-16T10:15:42.836Z,94098.33
2018-03-16T10:18:12.058Z,94096.53
2018-03-16T10:20:41.631Z,94097.09
2018-03-16T10:23:13.926Z,94099.94
2018-03-16T10:25:44.550Z,94097.70
2018-03-16T10:28:15.159Z,94100.34
2018-03-16T10:33:24.610Z,94100.14
2018-03-16T10:35:54.506Z,94102.88
2018-03-16T10:41:02.744Z,94100.78
2018-03-16T10:43:31.838Z,94101.47
2018-03-16T10:46:02.611Z,94102.19
2018-03-16T10:48:32.127Z,94098.65
2018-03-16T10:51:01.174Z,94104.58
2018-03-16T10:56:06.097Z,94105.36
2018-03-16T10:58:35.530Z,94114.05
2018-03-16T11:01:10.068Z,94113.36
2018-03-16T11:03:51.972Z,94119.80
2018-03-16T11:06:30.774Z,94109.16
2018-03-16T11:09:00.696Z,94114.59
2018-03-16T11:14:07.922Z,94104.53
2018-03-16T11:16:38.971Z,94101.05
2018-03-16T11:19:09.489Z,94099.28
2018-03-16T11:21:41.512Z,94105.42
2018-03-16T11:24:14.002Z,94128.83
2018-03-16T11:26:46.575Z,94120.01
2018-03-16T11:29:18.024Z,94114.55
2018-03-16T11:31:50.463Z,94116.37
2018-03-16T11:34:19.640Z,94100.95
2018-03-16T11:36:51.205Z,94105.30
2018-03-16T11:39:24.964Z,94109.50
2018-03-16T11:41:56.478Z,94106.67
2018-03-16T11:44:27.937Z,94115.88
2018-03-16T11:46:59.238Z,94110.41
2018-03-16T11:49:31.145Z,94115.52
2018-03-16T11:52:02.341Z,94116.47
2018-03-16T11:54:33.746Z,94111.92
2018-03-16T11:57:07.153Z,94112.34
2018-03-16T11:59:39.527Z,94118.38
2018-03-16T12:02:10.583Z,94109.13
2018-03-16T12:07:16.988Z,94111.94
2018-03-16T12:09:48.906Z,94109.58
2018-03-16T12:12:20.688Z,94117.03
2018-03-16T12:17:26.527Z,94118.55
2018-03-16T12:22:34.356Z,94119.11
2018-03-16T12:25:11.571Z,94113.92
2018-03-16T12:27:42.860Z,94113.92
2018-03-16T12:30:15.856Z,94113.36
2018-03-16T12:32:44.960Z,94107.70
2018-03-16T12:37:54.345Z,94122.35
2018-03-16T12:40:29.010Z,94112.60
2018-03-16T12:42:58.646Z,94110.66
2018-03-16T12:48:05.125Z,94110.98
2018-03-16T12:53:19.853Z,94094.16
2018-03-16T12:55:57.690Z,94110.72
2018-03-16T12:58:36.347Z,94106.89
2018-03-16T13:03:44.774Z,94095.14
2018-03-16T13:06:17.226Z,94096.13
2018-03-16T13:08:48.323Z,94097.53
2018-03-16T13:11:21.017Z,94102.15
2018-03-16T13:13:52.252Z,94099.91
2018-03-16T13:21:37.722Z,94087.66
2018-03-16T13:24:10.642Z,94075.92
2018-03-16T13:26:41.456Z,94068.86
2018-03-16T13:29:14.481Z,94079.91
2018-03-16T13:31:44.932Z,94087.96
2018-03-16T13:34:16.549Z,94082.80
2018-03-16T13:36:45.978Z,94078.94
2018-03-16T13:39:15.073Z,94077.61
2018-03-16T13:44:22.387Z,94078.80
2018-03-16T13:46:51.486Z,94077.00
2018-03-16T13:51:55.814Z,94064.34
2018-03-16T13:54:25.480Z,94065.17
2018-03-16T13:56:54.534Z,94065.64
2018-03-16T13:59:24.507Z,94057.58
2018-03-16T14:01:53.583Z,94070.59
2018-03-16T14:04:22.978Z,94066.83
2018-03-16T14:06:52.079Z,94063.92
2018-03-16T14:09:21.133Z,94070.98
2018-03-16T14:11:50.835Z,94068.64
2018-03-16T14:14:19.883Z,94064.20
2018-03-16T14:16:51.315Z,94060.57
2018-03-16T14:19:20.373Z,94059.61
2018-03-16T14:24:25.248Z,94058.49
2018-03-16T14:27:00.470Z,94056.02
2018-03-16T14:29:32.017Z,94046.53
2018-03-16T14:32:03.438Z,94049.14
2018-03-16T14:34:34.906Z,94046.08
2018-03-16T14:37:05.971Z,94057.58
2018-03-16T14:39:38.075Z,94053.77
2018-03-16T14:42:10.759Z,94059.52
2018-03-16T14:44:46.073Z,94058.60
2018-03-16T14:47:18.078Z,94057.54
2018-03-16T14:49:49.631Z,94066.91
2018-03-16T14:52:21.257Z,94074.33
2018-03-16T14:54:54.128Z,94093.17
2018-03-16T14:57:27.051Z,94090.56
2018-03-16T14:59:58.429Z,94080.61
2018-03-16T15:02:29.323Z,94083.06
2018-03-16T15:05:01.204Z,94093.13
2018-03-16T15:07:32.994Z,94099.16
2018-03-16T15:10:02.126Z,94102.59
2018-03-16T15:12:34.925Z,94096.09
2018-03-16T15:15:03.974Z,94101.77
2018-03-16T15:17:33.106Z,94104.42
2018-03-16T15:20:06.431Z,94098.18
2018-03-16T15:22:40.094Z,94099.77
2018-03-16T15:25:12.059Z,94106.03
2018-03-16T15:27:45.261Z,94100.38
2018-03-16T15:30:17.482Z,94097.31
2018-03-16T15:35:23.049Z,94084.98
2018-03-16T15:40:28.938Z,94079.36
2018-03-16T15:43:01.420Z,94070.04
2018-03-16T15:45:33.080Z,94060.66
2018-03-16T15:48:04.835Z,94062.44
2018-03-16T15:53:09.443Z,94060.36
2018-03-16T15:55:41.089Z,94057.36
2018-03-16T15:58:12.451Z,94058.40
2018-03-16T16:03:20.740Z,94054.73
2018-03-16T16:05:51.800Z,94056.36
2018-03-16T16:08:23.773Z,94054.98
2018-03-16T16:10:55.695Z,94052.59
2018-03-16T16:13:28.285Z,94048.52
2018-03-16T16:18:36.947Z,94047.52
2018-03-16T16:21:15.290Z,94049.94
2018-03-16T16:23:47.440Z,94048.54
2018-03-16T16:26:19.379Z,94050.78
2018-03-16T16:28:51.335Z,94049.39
2018-03-16T16:31:23.705Z,94054.20
2018-03-16T16:33:53.058Z,94057.23
2018-03-16T16:36:23.401Z,94061.25
2018-03-16T16:38:55.027Z,94065.41
2018-03-16T16:41:31.670Z,94068.48
2018-03-16T16:44:04.804Z,94063.27
2018-03-16T16:46:36.122Z,94071.07
2018-03-16T16:49:08.582Z,94074.08
2018-03-16T16:51:42.331Z,94071.84
2018-03-16T16:54:13.224Z,94076.98
2018-03-16T16:56:45.202Z,94077.19
2018-03-16T16:59:17.528Z,94084.67
2018-03-16T17:01:50.079Z,94087.63
2018-03-16T17:04:23.572Z,94086.21
2018-03-16T17:09:34.092Z,94093.11
2018-03-16T17:12:10.284Z,94091.34
2018-03-16T17:14:41.622Z,94100.36
2018-03-16T17:19:51.525Z,94109.52
2018-03-16T17:22:22.563Z,94111.35
2018-03-16T17:24:54.081Z,94115.83
2018-03-16T17:27:25.253Z,94123.13
2018-03-16T17:29:56.824Z,94125.73
2018-03-16T17:32:27.070Z,94129.70
2018-03-16T17:35:11.995Z,94135.48
2018-03-16T17:37:47.673Z,94143.80
2018-03-16T17:40:20.724Z,94149.05
2018-03-16T17:42:52.490Z,94148.28
2018-03-16T17:45:24.345Z,94156.00
2018-03-16T17:50:30.765Z,94156.23
2018-03-16T17:53:03.502Z,94160.40
2018-03-16T17:55:34.516Z,94159.82
2018-03-16T17:58:10.215Z,94155.61
2018-03-16T18:00:41.885Z,94155.61
2018-03-16T18:03:13.331Z,94159.43
2018-03-16T18:05:52.130Z,94161.94
2018-03-16T18:10:59.723Z,94162.02
2018-03-16T18:13:31.687Z,94168.28
2018-03-16T18:18:38.115Z,94168.13
2018-03-16T18:21:09.659Z,94168.06
2018-03-16T18:23:39.807Z,94172.90
2018-03-16T18:26:12.003Z,94169.41
2018-03-16T18:28:42.196Z,94169.89
2018-03-16T18:31:11.213Z,94175.08
2018-03-16T18:33:41.531Z,94171.21
2018-03-16T18:36:10.815Z,94171.77
2018-03-16T18:38:45.927Z,94174.01
2018-03-16T18:43:24.200Z,94178.97
2018-03-16T18:46:06.182Z,94178.75
2018-03-16T18:48:36.733Z,94172.98
2018-03-16T18:51:05.788Z,94171.28
2018-03-16T18:53:35.568Z,94167.58
2018-03-16T18:56:04.605Z,94169.52
2018-03-16T18:58:35.403Z,94166.03
2018-03-16T19:03:39.622Z,94162.42
2018-03-16T19:06:09.422Z,94154.03
2018-03-16T19:08:38.531Z,94154.59
2018-03-16T19:11:08.531Z,94156.24
2018-03-16T19:13:40.882Z,94160.48
2018-03-16T19:16:13.069Z,94161.88
2018-03-16T19:18:50.769Z,94160.17
2018-03-16T19:21:22.174Z,94157.14
2018-03-16T19:23:53.128Z,94160.48
2018-03-16T19:26:38.599Z,94167.48
2018-03-16T19:31:45.866Z,94159.75
2018-03-16T19:36:54.244Z,94158.42
2018-03-16T19:39:33.972Z,94150.89
2018-03-16T19:55:02.309Z,94129.84
2018-03-16T19:57:38.087Z,94131.45
2018-03-16T20:02:54.735Z,94128.08
2018-03-16T20:08:06.080Z,94131.14
2018-03-16T20:13:10.366Z,94124.18
2018-03-16T20:15:41.387Z,94125.42
2018-03-16T20:20:47.308Z,94111.86
2018-03-16T20:23:43.240Z,94106.58
2018-03-16T20:26:19.008Z,94097.53
2018-03-16T20:28:48.056Z,94102.31
2018-03-16T20:31:18.450Z,94095.19
2018-03-16T20:33:47.526Z,94090.98
2018-03-16T20:36:22.331Z,94087.70
2018-03-16T20:38:53.747Z,94084.83
2018-03-16T20:41:24.791Z,94084.59
2018-03-16T20:43:54.404Z,94085.58
2018-03-16T20:46:23.435Z,94083.73
2018-03-16T20:48:53.441Z,94084.69
2018-03-16T20:51:24.594Z,94092.27
2018-03-16T20:53:53.637Z,94102.20
2018-03-16T20:56:22.675Z,94114.17
2018-03-16T20:58:54.851Z,94115.63
2018-03-16T21:01:48.758Z,94126.38
2018-03-16T21:04:22.694Z,94131.20
2018-03-16T21:09:53.714Z,94139.61
2018-03-16T21:12:25.717Z,94138.68
2018-03-16T21:14:58.801Z,94145.30
2018-03-16T21:17:30.442Z,94147.66
2018-03-16T21:22:37.463Z,94148.19
2018-03-16T21:25:09.176Z,94149.41
2018-03-16T21:27:55.469Z,94146.22
2018-03-16T21:30:32.243Z,94143.08
2018-03-16T21:33:04.170Z,94146.63
2018-03-16T21:35:35.770Z,94130.33
2018-03-16T21:38:07.927Z,94127.20
2018-03-16T21:40:43.284Z,94121.57
2018-03-16T21:46:02.654Z,94117.33
2018-03-16T21:48:35.754Z,94119.95
2018-03-16T21:51:08.658Z,94119.03
2018-03-16T21:53:54.031Z,94124.44
2018-03-16T21:59:01.998Z,94126.05
2018-03-16T22:01:47.295Z,94124.11
2018-03-16T22:04:29.455Z,94118.59
2018-03-16T22:06:58.505Z,94117.63
2018-03-16T22:09:29.652Z,94114.20
2018-03-16T22:11:58.739Z,94118.36
2018-03-16T22:14:55.043Z,94110.38
2018-03-16T22:17:34.184Z,94114.38
2018-03-16T22:20:06.191Z,94112.21
2018-03-16T22:22:48.464Z,94108.25
2018-03-16T22:25:47.175Z,94111.67
2018-03-16T22:28:47.263Z,94108.73
2018-03-16T22:31:24.075Z,94108.28
2018-03-16T22:36:36.668Z,94107.36
2018-03-16T22:41:49.606Z,94108.39
2018-03-16T22:47:00.165Z,94101.48
2018-03-16T22:49:33.974Z,94102.05
2018-03-16T22:52:06.098Z,94098.73
2018-03-16T22:54:54.087Z,94102.94
2018-03-16T22:57:26.254Z,94099.86
2018-03-16T22:59:58.458Z,94095.08
2018-03-16T23:02:30.637Z,94087.30
2018-03-16T23:05:02.643Z,94087.65
2018-03-16T23:07:34.916Z,94086.48
2018-03-16T23:10:03.970Z,94086.36
2018-03-16T23:12:41.130Z,94079.09
2018-03-16T23:15:10.211Z,94071.63
2018-03-16T23:23:02.465Z,94067.53
2018-03-16T23:25:37.230Z,94066.14
2018-03-16T23:30:46.461Z,94058.18
2018-03-16T23:33:21.479Z,94054.91
2018-03-16T23:35:50.466Z,94056.44
2018-03-16T23:38:27.701Z,94057.17
2018-03-16T23:40:56.763Z,94050.17
2018-03-16T23:46:06.612Z,94049.00
2018-03-16T23:48:39.467Z,94053.67
2018-03-16T23:51:19.921Z,94056.87
2018-03-16T23:53:50.000Z,94049.98
2018-03-16T23:56:45.970Z,94041.45
2018-03-16T23:59:27.322Z,94027.30
